Today's 10 Minute Log



Time Temperature  Humidity  Dewpoint    Barometer Average speed Gust speed   Direction  Rain last min  Daily rain  Monthly rain Yearly rain Heatindex 
00:10       27.2      93       25.4      29.844      0.0           0.0           318         0.000        0.000        0.170        0.170      27.2
00:20       27.3      93       25.5      29.841      0.0           0.0           317         0.000        0.000        0.170        0.170      27.3
00:30       27.4      93       25.6      29.841      0.0           0.0           317         0.000        0.000        0.170        0.170      27.4
00:40       27.4      93       25.6      29.845      0.0           0.0           318         0.000        0.000        0.170        0.170      27.4
00:50       27.4      93       25.6      29.848      0.0           0.0           318         0.000        0.000        0.170        0.170      27.4
01:00       27.4      93       25.6      29.851      0.0           0.0           318         0.000        0.000        0.170        0.170      27.4
01:10       27.3      93       25.5      29.849      0.0           0.0           318         0.000        0.000        0.170        0.170      27.3
01:20       27.4      93       25.6      29.851      0.0           0.0           318         0.000        0.000        0.170        0.170      27.4
01:30       27.3      93       25.5      29.853      0.0           0.0           318         0.000        0.000        0.170        0.170      27.3
01:40       27.1      93       25.4      29.860      0.0           0.0           317         0.000        0.000        0.170        0.170      27.1
01:50       27.2      94       25.7      29.868      0.0           0.0           318         0.000        0.000        0.170        0.170      27.2
02:00       27.2      94       25.7      29.872      1.6           4.0           317         0.000        0.000        0.170        0.170      27.2
02:10       27.2      94       25.7      29.876      0.0           0.0           318         0.000        0.000        0.170        0.170      27.2
02:20       27.1      94       25.6      29.880      1.9           3.0           317         0.000        0.000        0.170        0.170      27.1
02:30       27.0      94       25.5      29.881      0.0           0.0           317         0.000        0.000        0.170        0.170      27.0
02:40       27.0      94       25.5      29.884      0.0           0.0           317         0.000        0.000        0.170        0.170      27.0
02:50       26.9      94       25.4      29.885      0.0           0.0           317         0.000        0.000        0.170        0.170      26.9
03:00       26.9      94       25.4      29.889      5.6           6.0           312         0.000        0.000        0.170        0.170      26.9
03:10       26.8      95       25.6      29.892      4.1           6.0           304         0.000        0.000        0.170        0.170      26.8
03:20       26.7      95       25.5      29.895      4.3           6.0           309         0.000        0.000        0.170        0.170      26.7
03:30       26.6      95       25.4      29.897      3.5           5.0           316         0.000        0.000        0.170        0.170      26.6
03:40       26.6      95       25.4      29.903      0.0           0.0           316         0.000        0.000        0.170        0.170      26.6
03:50       26.6      95       25.4      29.905      0.0           0.0           316         0.000        0.000        0.170        0.170      26.6
04:00       26.6      96       25.6      29.907      0.0           0.0           317         0.000        0.000        0.170        0.170      26.6
04:10       26.3      96       25.3      29.913      0.0           0.0           317         0.000        0.000        0.170        0.170      26.3
04:20       26.4      96       25.4      29.920      0.0           0.0           318         0.000        0.000        0.170        0.170      26.4
04:30       26.5      96       25.5      29.924      2.9           5.0           318         0.000        0.000        0.170        0.170      26.5
04:40       26.6      96       25.6      29.933      0.0           0.0           318         0.000        0.000        0.170        0.170      26.6
04:50       26.6      96       25.6      29.937      0.0           0.0           318         0.000        0.000        0.170        0.170      26.6
05:00       26.2      96       25.2      29.935      2.5           5.0           319         0.000        0.000        0.170        0.170      26.2
05:10       26.1      96       25.1      29.939      0.0           0.0           320         0.000        0.000        0.170        0.170      26.1
05:20       26.0      96       25.0      29.942      0.0           0.0           320         0.000        0.000        0.170        0.170      26.0
05:30       25.8      96       24.8      29.945      0.0           0.0           321         0.000        0.000        0.170        0.170      25.8
05:40       25.5      96       24.5      29.952      0.0           0.0           321         0.000        0.000        0.170        0.170      25.5
05:50       25.4      96       24.5      29.954      0.0           0.0           321         0.000        0.000        0.170        0.170      25.4
06:00       25.7      96       24.7      29.953      0.0           0.0           321         0.000        0.000        0.170        0.170      25.7
06:10       25.8      96       24.8      29.960      0.0           0.0           321         0.000        0.000        0.170        0.170      25.8
06:20       25.8      96       24.8      29.957      0.0           0.0           321         0.000        0.000        0.170        0.170      25.8
06:30       25.6      96       24.6      29.962      0.0           0.0           321         0.000        0.000        0.170        0.170      25.6
06:40       25.5      96       24.5      29.969      0.0           0.0           321         0.000        0.000        0.170        0.170      25.5
06:50       25.4      96       24.4      29.968      0.0           0.0           321         0.000        0.000        0.170        0.170      25.4
07:00       25.6      96       24.6      29.972      0.0           0.0           321         0.000        0.000        0.170        0.170      25.6
07:10       25.9      96       24.9      29.976      0.0           0.0           322         0.000        0.000        0.170        0.170      25.9
07:20       26.0      96       25.0      29.981      0.0           0.0           322         0.000        0.000        0.170        0.170      26.0
07:30       26.1      95       24.8      29.985      0.0           0.0           322         0.000        0.000        0.170        0.170      26.1
07:40       26.1      95       24.9      29.994      0.0           0.0           323         0.000        0.000        0.170        0.170      26.1
07:50       26.1      94       24.7      30.001      0.9           2.0           325         0.000        0.000        0.170        0.170      26.1
08:00       26.3      94       24.8      30.006      0.0           0.0           330         0.000        0.000        0.170        0.170      26.3
08:10       26.4      94       24.9      30.007      0.0           0.0           330         0.000        0.000        0.170        0.170      26.4
08:20       26.6      94       25.1      30.011      0.6           4.0           330         0.000        0.000        0.170        0.170      26.6
08:30       26.8      93       25.0      30.012      6.8           9.0           318         0.000        0.000        0.170        0.170      26.8
08:40       27.1      93       25.4      30.014      7.3           9.0           319         0.000        0.000        0.170        0.170      27.1
08:50       27.4      92       25.4      30.019      5.8           6.0           324         0.000        0.000        0.170        0.170      27.4
09:00       27.8      91       25.5      30.021      9.2           11.0           319         0.000        0.000        0.170        0.170      27.8
09:10       28.1      91       25.8      30.023      7.1           10.0           320         0.000        0.000        0.170        0.170      28.1
09:20       28.1      90       25.5      30.030      8.8           11.0           324         0.000        0.000        0.170        0.170      28.1
09:30       28.3      89       25.5      30.037      9.0           13.0           323         0.000        0.000        0.170        0.170      28.3
09:40       28.6      87       25.2      30.039      10.6           14.0           323         0.000        0.000        0.170        0.170      28.6
09:50       28.8      88       25.7      30.048      7.2           10.0           330         0.000        0.000        0.170        0.170      28.8
10:00       29.1      87       25.7      30.054      8.2           10.0           337         0.000        0.000        0.170        0.170      29.1
10:10       29.3      87       25.9      30.059      9.2           17.0           327         0.000        0.000        0.170        0.170      29.3